createdAt,value
2018-04-24T00:01:38.780Z,13.79
2018-04-24T00:04:06.389Z,13.59
2018-04-24T00:06:34.060Z,13.51
2018-04-24T00:09:01.682Z,13.28
2018-04-24T00:11:29.351Z,13.29
2018-04-24T00:13:56.989Z,13.57
2018-04-24T00:16:24.618Z,13.70
2018-04-24T00:18:52.240Z,13.48
2018-04-24T00:21:19.974Z,13.43
2018-04-24T00:23:47.663Z,13.61
2018-04-24T00:26:15.272Z,13.63
2018-04-24T00:28:42.891Z,13.83
2018-04-24T00:31:10.511Z,13.63
2018-04-24T00:33:38.176Z,13.53
2018-04-24T00:36:06.162Z,13.49
2018-04-24T00:38:33.749Z,13.69
2018-04-24T00:41:01.392Z,13.79
2018-04-24T00:43:28.996Z,14.00
2018-04-24T00:45:56.738Z,13.82
2018-04-24T00:48:24.316Z,13.69
2018-04-24T00:50:51.980Z,13.74
2018-04-24T00:53:40.601Z,13.67
2018-04-24T00:56:08.203Z,13.65
2018-04-24T00:58:35.998Z,13.73
2018-04-24T01:01:03.602Z,13.67
2018-04-24T01:03:31.259Z,13.25
2018-04-24T01:05:58.930Z,13.00
2018-04-24T01:08:26.603Z,12.95
2018-04-24T01:10:54.215Z,13.06
2018-04-24T01:13:21.822Z,13.34
2018-04-24T01:15:49.453Z,13.42
2018-04-24T01:18:17.138Z,13.33
2018-04-24T01:20:44.784Z,13.47
2018-04-24T01:23:12.376Z,13.66
2018-04-24T01:25:40.018Z,13.58
2018-04-24T01:28:07.631Z,13.55
2018-04-24T01:30:35.296Z,13.39
2018-04-24T01:33:02.883Z,13.54
2018-04-24T01:35:30.541Z,13.38
2018-04-24T01:37:58.201Z,13.13
2018-04-24T01:40:25.804Z,13.28
2018-04-24T01:42:53.430Z,13.40
2018-04-24T01:45:21.032Z,13.28
2018-04-24T01:47:49.281Z,13.33
2018-04-24T01:50:17.335Z,13.46
2018-04-24T01:52:44.938Z,13.46
2018-04-24T01:55:12.589Z,13.55
2018-04-24T01:57:40.231Z,13.48
2018-04-24T02:00:07.881Z,13.45
2018-04-24T02:02:35.580Z,13.45
2018-04-24T02:05:03.183Z,13.51
2018-04-24T02:07:30.772Z,13.58
2018-04-24T02:09:58.454Z,13.61
2018-04-24T02:12:26.053Z,13.74
2018-04-24T02:14:53.659Z,13.60
2018-04-24T02:17:21.304Z,13.55
2018-04-24T02:19:49.010Z,13.48
2018-04-24T02:22:16.635Z,13.45
2018-04-24T02:24:44.305Z,13.43
2018-04-24T02:27:11.999Z,13.45
2018-04-24T02:29:39.612Z,13.26
2018-04-24T02:32:07.275Z,13.30
2018-04-24T02:34:35.255Z,13.34
2018-04-24T02:37:02.935Z,13.41
2018-04-24T02:39:30.590Z,13.49
2018-04-24T02:41:58.207Z,13.41
2018-04-24T02:44:25.862Z,13.34
2018-04-24T02:46:53.475Z,13.31
2018-04-24T02:49:21.115Z,13.40
2018-04-24T02:51:48.739Z,13.40
2018-04-24T02:54:16.353Z,13.35
2018-04-24T02:56:43.994Z,13.40
2018-04-24T02:59:11.593Z,13.27
2018-04-24T03:01:39.253Z,13.41
2018-04-24T03:04:07.048Z,13.41
2018-04-24T03:06:34.676Z,13.47
2018-04-24T03:09:02.367Z,13.47
2018-04-24T03:11:30.015Z,13.48
2018-04-24T03:13:57.651Z,13.41
2018-04-24T03:16:25.304Z,13.44
2018-04-24T03:18:52.904Z,13.32
2018-04-24T03:21:20.624Z,13.34
2018-04-24T03:23:48.413Z,13.27
2018-04-24T03:26:16.066Z,13.19
2018-04-24T03:28:43.776Z,13.20
2018-04-24T03:31:11.367Z,13.31
2018-04-24T03:33:39.025Z,13.37
2018-04-24T03:36:06.666Z,13.29
2018-04-24T03:38:34.345Z,13.32
2018-04-24T03:41:01.946Z,13.39
2018-04-24T03:43:29.600Z,13.30
2018-04-24T03:45:57.277Z,13.45
2018-04-24T03:48:24.873Z,13.39
2018-04-24T03:50:52.487Z,13.36
2018-04-24T03:53:20.126Z,13.29
2018-04-24T03:55:47.746Z,13.07
2018-04-24T03:58:15.397Z,12.98
2018-04-24T04:00:43.020Z,13.11
2018-04-24T04:03:10.664Z,13.02
2018-04-24T04:05:38.327Z,13.13
2018-04-24T04:08:05.963Z,13.11
2018-04-24T04:10:33.644Z,13.13
2018-04-24T04:13:01.253Z,13.20
2018-04-24T04:15:28.967Z,13.15
2018-04-24T04:18:08.505Z,13.13
2018-04-24T04:20:47.839Z,13.21
2018-04-24T04:23:27.093Z,13.22
2018-04-24T04:25:55.440Z,13.27
2018-04-24T04:28:23.060Z,13.21
2018-04-24T04:30:50.725Z,13.16
2018-04-24T04:33:18.389Z,13.23
2018-04-24T04:35:46.045Z,13.21
2018-04-24T04:38:13.694Z,13.19
2018-04-24T04:40:41.362Z,13.14
2018-04-24T04:43:09.027Z,13.25
2018-04-24T04:45:36.698Z,13.28
2018-04-24T04:48:04.400Z,13.28
2018-04-24T04:50:32.049Z,13.13
2018-04-24T04:52:59.749Z,13.05
2018-04-24T04:55:27.364Z,12.96
2018-04-24T04:57:54.970Z,13.09
2018-04-24T05:00:22.681Z,13.25
2018-04-24T05:02:50.296Z,13.33
2018-04-24T05:05:18.801Z,13.37
2018-04-24T05:07:46.379Z,13.34
2018-04-24T05:10:14.040Z,13.30
2018-04-24T05:12:41.649Z,13.37
2018-04-24T05:15:09.241Z,13.40
2018-04-24T05:17:36.929Z,13.50
2018-04-24T05:20:04.585Z,13.46
2018-04-24T05:22:32.184Z,13.57
2018-04-24T05:24:59.867Z,13.68
2018-04-24T05:27:27.464Z,13.77
2018-04-24T05:29:55.111Z,13.73
2018-04-24T05:32:22.777Z,13.78
2018-04-24T05:34:50.407Z,13.82
2018-04-24T05:37:18.008Z,13.96
2018-04-24T05:39:45.671Z,14.10
2018-04-24T05:42:13.295Z,14.05
2018-04-24T05:44:40.902Z,14.01
2018-04-24T05:47:08.552Z,14.04
2018-04-24T05:49:36.235Z,14.07
2018-04-24T05:52:03.917Z,14.05
2018-04-24T05:54:31.552Z,14.04
2018-04-24T05:56:59.149Z,14.17
2018-04-24T05:59:26.791Z,14.12
2018-04-24T06:01:54.400Z,14.15
2018-04-24T06:04:22.049Z,14.20
2018-04-24T06:06:49.707Z,14.25
2018-04-24T06:09:17.309Z,14.29
2018-04-24T06:11:44.962Z,14.20
2018-04-24T06:14:12.698Z,14.24
2018-04-24T06:16:40.383Z,14.25
2018-04-24T06:19:08.079Z,14.34
2018-04-24T06:21:35.709Z,14.40
2018-04-24T06:24:03.367Z,14.50
2018-04-24T06:26:30.978Z,14.62
2018-04-24T06:28:58.590Z,14.75
2018-04-24T06:31:26.239Z,14.84
2018-04-24T06:33:53.893Z,14.93
2018-04-24T06:36:21.501Z,15.01
2018-04-24T06:38:49.169Z,15.00
2018-04-24T06:41:16.803Z,15.02
2018-04-24T06:43:44.388Z,15.05
2018-04-24T06:46:12.079Z,15.11
2018-04-24T06:48:39.711Z,15.12
2018-04-24T06:51:07.339Z,15.15
2018-04-24T06:53:34.937Z,15.20
2018-04-24T06:56:02.597Z,15.21
2018-04-24T06:58:30.237Z,15.17
2018-04-24T07:00:57.834Z,15.23
2018-04-24T07:03:25.478Z,15.09
2018-04-24T07:05:53.146Z,15.23
2018-04-24T07:08:20.736Z,15.19
2018-04-24T07:10:48.366Z,15.21
2018-04-24T07:13:16.084Z,15.29
2018-04-24T07:15:44.692Z,15.25
2018-04-24T07:18:13.338Z,15.17
2018-04-24T07:20:41.002Z,15.30
2018-04-24T07:23:08.674Z,15.16
2018-04-24T07:25:36.346Z,15.26
2018-04-24T07:28:03.967Z,15.16
2018-04-24T07:30:31.572Z,15.42
2018-04-24T07:32:59.310Z,15.27
2018-04-24T07:35:27.004Z,14.81
2018-04-24T07:37:54.710Z,14.72
2018-04-24T07:40:22.347Z,15.01
2018-04-24T07:42:50.050Z,15.20
2018-04-24T07:45:17.678Z,15.54
2018-04-24T07:47:45.390Z,15.36
2018-04-24T07:50:13.094Z,15.53
2018-04-24T07:52:40.775Z,15.60
2018-04-24T07:55:08.451Z,15.69
2018-04-24T07:57:36.128Z,15.79
2018-04-24T08:00:03.921Z,15.82
2018-04-24T08:02:31.577Z,15.78
2018-04-24T08:05:00.121Z,15.84
2018-04-24T08:07:27.860Z,15.80
2018-04-24T08:09:55.619Z,16.02
2018-04-24T08:12:23.308Z,16.18
2018-04-24T08:14:51.035Z,16.46
2018-04-24T08:17:18.722Z,16.44
2018-04-24T08:19:46.399Z,16.01
2018-04-24T08:22:14.064Z,16.44
2018-04-24T08:24:41.677Z,16.59
2018-04-24T08:27:09.383Z,16.34
2018-04-24T08:29:36.984Z,16.43
2018-04-24T08:32:04.645Z,16.86
2018-04-24T08:34:32.722Z,17.12
2018-04-24T08:37:00.568Z,17.39
2018-04-24T08:39:28.287Z,17.57
2018-04-24T08:41:56.138Z,17.23
2018-04-24T08:44:23.878Z,17.32
2018-04-24T08:46:51.545Z,17.11
2018-04-24T08:49:19.351Z,16.83
2018-04-24T08:51:46.965Z,17.16
2018-04-24T08:54:14.764Z,17.36
2018-04-24T08:56:42.519Z,17.27
2018-04-24T08:59:10.140Z,17.49
2018-04-24T09:01:38.007Z,17.62
2018-04-24T09:04:05.709Z,17.11
2018-04-24T09:06:33.718Z,16.97
2018-04-24T09:09:01.395Z,16.68
2018-04-24T09:11:29.616Z,17.09
2018-04-24T09:13:57.333Z,17.15
2018-04-24T09:16:24.949Z,17.42
2018-04-24T09:18:52.908Z,17.34
2018-04-24T09:21:21.477Z,17.49
2018-04-24T09:23:49.163Z,17.29
2018-04-24T09:26:17.575Z,17.61
2018-04-24T09:28:45.236Z,17.61
2018-04-24T09:31:12.925Z,18.31
2018-04-24T09:33:40.642Z,18.27
2018-04-24T09:36:08.677Z,19.15
2018-04-24T09:38:36.287Z,19.13
2018-04-24T09:41:03.987Z,18.36
2018-04-24T09:43:31.652Z,18.44
2018-04-24T09:45:59.310Z,17.84
2018-04-24T09:48:27.067Z,17.77
2018-04-24T09:50:55.487Z,17.67
2018-04-24T09:53:23.162Z,17.54
2018-04-24T09:55:50.879Z,17.78
2018-04-24T09:58:18.587Z,17.77
2018-04-24T10:00:46.235Z,17.70
2018-04-24T10:03:13.892Z,18.04
2018-04-24T10:05:41.511Z,18.18
2018-04-24T10:08:09.170Z,18.10
2018-04-24T10:10:36.829Z,17.85
2018-04-24T10:13:04.529Z,17.87
2018-04-24T10:15:32.180Z,18.05
2018-04-24T10:17:59.819Z,17.84
2018-04-24T10:20:27.800Z,17.72
2018-04-24T10:22:55.397Z,18.18
2018-04-24T10:25:23.064Z,18.05
2018-04-24T10:27:50.673Z,17.88
2018-04-24T10:30:18.329Z,17.75
2018-04-24T10:32:45.992Z,18.05
2018-04-24T10:35:13.651Z,18.04
2018-04-24T10:37:41.353Z,18.05
2018-04-24T10:40:09.102Z,18.16
2018-04-24T10:42:36.769Z,18.40
2018-04-24T10:45:04.574Z,17.96
2018-04-24T10:47:32.198Z,18.10
2018-04-24T10:50:00.079Z,18.40
2018-04-24T10:52:27.734Z,18.47
2018-04-24T10:54:55.348Z,18.54
2018-04-24T10:57:23.074Z,18.29
2018-04-24T10:59:50.693Z,18.43
2018-04-24T11:02:18.387Z,18.26
2018-04-24T11:04:46.137Z,18.19
2018-04-24T11:07:13.724Z,18.18
2018-04-24T11:09:41.383Z,18.15
2018-04-24T11:12:09.037Z,17.92
2018-04-24T11:14:36.691Z,17.53
2018-04-24T11:17:04.405Z,17.75
2018-04-24T11:19:32.203Z,17.66
2018-04-24T11:21:59.805Z,17.86
2018-04-24T11:24:27.470Z,18.11
2018-04-24T11:26:55.087Z,18.27
2018-04-24T11:29:22.807Z,18.69
2018-04-24T11:31:50.914Z,18.93
2018-04-24T11:34:18.554Z,18.87
2018-04-24T11:36:46.224Z,19.23
2018-04-24T11:39:13.822Z,19.33
2018-04-24T11:41:41.523Z,19.39
2018-04-24T11:44:09.549Z,19.52
2018-04-24T11:46:37.172Z,19.55
2018-04-24T11:49:04.869Z,20.08
2018-04-24T11:51:32.849Z,19.51
2018-04-24T11:54:00.460Z,19.87
2018-04-24T11:56:28.118Z,20.04
2018-04-24T11:58:55.709Z,19.77
2018-04-24T12:01:23.410Z,19.71
2018-04-24T12:03:51.051Z,20.11
2018-04-24T12:06:18.651Z,20.10
2018-04-24T12:08:46.307Z,20.69
2018-04-24T12:11:13.904Z,20.50
2018-04-24T12:13:41.519Z,20.67
2018-04-24T12:16:09.201Z,20.63
2018-04-24T12:18:36.861Z,20.57
2018-04-24T12:21:04.520Z,20.54
2018-04-24T12:23:32.184Z,20.44
2018-04-24T12:25:59.787Z,20.31
2018-04-24T12:28:27.424Z,20.57
2018-04-24T12:30:55.125Z,20.68
2018-04-24T12:33:22.733Z,20.69
2018-04-24T12:35:50.413Z,20.61
2018-04-24T12:38:18.084Z,20.62
2018-04-24T12:40:45.691Z,20.80
2018-04-24T12:43:13.443Z,21.37
2018-04-24T12:45:41.112Z,21.09
2018-04-24T12:48:08.795Z,20.80
2018-04-24T12:50:37.329Z,20.92
2018-04-24T12:53:04.921Z,21.52
2018-04-24T12:55:32.594Z,21.53
2018-04-24T12:58:00.270Z,21.44
2018-04-24T13:00:27.959Z,21.21
2018-04-24T13:02:55.667Z,21.21
2018-04-24T13:05:23.288Z,21.13
2018-04-24T13:07:50.966Z,21.01
2018-04-24T13:10:19.296Z,21.36
2018-04-24T13:12:46.904Z,21.83
2018-04-24T13:15:14.634Z,21.73
2018-04-24T13:17:42.345Z,22.01
2018-04-24T13:20:10.976Z,21.97
2018-04-24T13:22:38.636Z,21.90
2018-04-24T13:25:06.414Z,21.93
2018-04-24T13:27:34.124Z,22.15
2018-04-24T13:30:01.842Z,21.92
2018-04-24T13:32:29.521Z,21.97
2018-04-24T13:34:57.161Z,22.20
2018-04-24T13:37:24.839Z,22.13
2018-04-24T13:39:52.472Z,22.14
2018-04-24T13:42:20.196Z,22.24
2018-04-24T13:44:48.057Z,22.33
2018-04-24T13:47:15.757Z,22.12
2018-04-24T13:49:43.396Z,21.99
2018-04-24T13:52:11.085Z,21.74
2018-04-24T13:54:38.729Z,21.82
2018-04-24T13:57:06.414Z,21.78
2018-04-24T13:59:34.089Z,21.92
2018-04-24T14:02:01.758Z,22.15
2018-04-24T14:04:29.459Z,22.40
2018-04-24T14:06:57.098Z,22.18
2018-04-24T14:09:24.762Z,22.41
2018-04-24T14:11:52.482Z,22.32
2018-04-24T14:14:20.126Z,21.91
2018-04-24T14:16:47.817Z,21.62
2018-04-24T14:19:15.459Z,21.83
2018-04-24T14:21:43.212Z,21.86
2018-04-24T14:24:10.861Z,22.12
2018-04-24T14:26:38.792Z,22.53
2018-04-24T14:29:06.716Z,21.96
2018-04-24T14:31:34.324Z,22.03
2018-04-24T14:34:02.016Z,21.57
2018-04-24T14:36:29.759Z,21.66
2018-04-24T14:38:57.660Z,21.69
2018-04-24T14:41:25.259Z,21.61
2018-04-24T14:43:52.919Z,21.62
2018-04-24T14:46:20.556Z,21.64
2018-04-24T14:48:48.194Z,21.75
2018-04-24T14:51:15.873Z,21.90
2018-04-24T14:53:43.533Z,22.11
2018-04-24T14:56:11.207Z,22.27
2018-04-24T14:58:38.870Z,22.19
2018-04-24T15:01:07.037Z,22.35
2018-04-24T15:03:34.775Z,22.37
2018-04-24T15:06:02.421Z,22.50
2018-04-24T15:08:30.129Z,22.48
2018-04-24T15:10:57.821Z,22.35
2018-04-24T15:13:26.441Z,22.26
2018-04-24T15:15:54.133Z,21.93
2018-04-24T15:18:21.893Z,22.36
2018-04-24T15:20:49.546Z,22.28
2018-04-24T15:23:17.159Z,22.33
2018-04-24T15:25:44.858Z,22.64
2018-04-24T15:28:12.485Z,22.39
2018-04-24T15:30:40.167Z,22.44
2018-04-24T15:33:07.817Z,22.28
2018-04-24T15:35:35.424Z,22.07
2018-04-24T15:38:03.050Z,22.08
2018-04-24T15:40:30.735Z,22.04
2018-04-24T15:42:58.368Z,21.87
2018-04-24T15:45:26.030Z,21.65
2018-04-24T15:47:53.633Z,21.30
2018-04-24T15:50:22.191Z,21.05
2018-04-24T15:52:49.778Z,21.39
2018-04-24T15:55:18.254Z,21.61
2018-04-24T15:57:46.025Z,21.35
2018-04-24T16:00:13.667Z,21.15
2018-04-24T16:02:41.318Z,21.10
2018-04-24T16:05:08.969Z,21.33
2018-04-24T16:07:36.753Z,21.11
2018-04-24T16:10:04.508Z,21.02
2018-04-24T16:12:32.158Z,21.02
2018-04-24T16:14:59.807Z,20.86
2018-04-24T16:17:27.490Z,20.64
2018-04-24T16:19:55.204Z,20.44
2018-04-24T16:22:22.882Z,20.24
2018-04-24T16:24:50.519Z,20.03
2018-04-24T16:27:18.198Z,20.12
2018-04-24T16:29:45.974Z,20.18
2018-04-24T16:32:13.622Z,19.98
2018-04-24T16:34:41.280Z,19.71
2018-04-24T16:37:08.956Z,19.53
2018-04-24T16:39:36.565Z,19.42
2018-04-24T16:42:04.239Z,19.38
2018-04-24T16:44:31.854Z,19.22
2018-04-24T16:46:59.514Z,18.98
2018-04-24T16:49:27.169Z,18.85
2018-04-24T16:51:54.877Z,18.73
2018-04-24T16:54:22.574Z,18.65
2018-04-24T16:56:50.214Z,18.67
2018-04-24T16:59:17.799Z,18.49
2018-04-24T17:01:46.679Z,18.28
2018-04-24T17:04:14.340Z,18.21
2018-04-24T17:06:42.010Z,18.16
2018-04-24T17:09:09.677Z,18.23
2018-04-24T17:11:37.334Z,18.15
2018-04-24T17:14:04.994Z,18.11
2018-04-24T17:16:32.702Z,18.13
2018-04-24T17:19:00.386Z,18.06
2018-04-24T17:21:28.024Z,18.06
2018-04-24T17:23:55.738Z,17.92
2018-04-24T17:26:23.390Z,17.96
2018-04-24T17:28:51.017Z,17.90
2018-04-24T17:31:18.748Z,17.80
2018-04-24T17:33:46.599Z,17.80
2018-04-24T17:36:14.231Z,17.71
2018-04-24T17:38:42.069Z,17.57
2018-04-24T17:41:10.671Z,17.47
2018-04-24T17:43:38.348Z,17.35
2018-04-24T17:46:05.955Z,17.33
2018-04-24T17:48:33.568Z,17.31
2018-04-24T17:51:02.703Z,17.33
2018-04-24T17:53:30.314Z,17.21
2018-04-24T17:55:58.057Z,17.27
2018-04-24T17:58:25.729Z,17.18
2018-04-24T18:00:53.437Z,16.93
2018-04-24T18:03:22.364Z,16.92
2018-04-24T18:05:50.190Z,16.94
2018-04-24T18:08:18.014Z,16.96
2018-04-24T18:10:47.021Z,17.03
2018-04-24T18:13:15.005Z,16.92
2018-04-24T18:15:42.774Z,16.82
2018-04-24T18:18:10.487Z,16.76
2018-04-24T18:20:38.133Z,16.68
2018-04-24T18:23:05.873Z,16.54
2018-04-24T18:25:33.595Z,16.53
2018-04-24T18:28:01.891Z,16.37
2018-04-24T18:30:29.602Z,16.28
2018-04-24T18:33:01.748Z,16.16
2018-04-24T18:35:29.773Z,16.09
2018-04-24T18:37:58.544Z,15.79
2018-04-24T18:40:26.297Z,15.72
2018-04-24T18:42:54.826Z,15.75
2018-04-24T18:45:22.983Z,15.71
2018-04-24T18:47:50.833Z,15.77
2018-04-24T18:50:18.607Z,15.79
2018-04-24T18:52:48.326Z,15.73
2018-04-24T18:55:16.171Z,15.53
2018-04-24T18:57:43.884Z,15.65
2018-04-24T19:00:11.810Z,15.66
2018-04-24T19:02:40.467Z,15.59
2018-04-24T19:05:08.180Z,15.55
2018-04-24T19:07:36.051Z,15.41
2018-04-24T19:10:03.874Z,15.43
2018-04-24T19:12:33.578Z,15.42
2018-04-24T19:15:02.572Z,15.32
2018-04-24T19:17:34.088Z,15.37
2018-04-24T19:20:03.105Z,15.28
2018-04-24T19:22:31.158Z,15.31
2018-04-24T19:25:05.338Z,15.22
2018-04-24T19:27:33.151Z,15.18
2018-04-24T19:30:00.954Z,15.05
2018-04-24T19:32:33.129Z,14.94
2018-04-24T19:35:00.856Z,14.93
2018-04-24T19:37:28.571Z,14.87
2018-04-24T19:40:01.874Z,14.64
2018-04-24T19:42:29.699Z,14.56
2018-04-24T19:44:57.451Z,14.37
2018-04-24T19:47:25.215Z,14.43
2018-04-24T19:49:58.467Z,14.43
2018-04-24T19:52:26.245Z,14.46
2018-04-24T19:54:59.536Z,14.17
2018-04-24T19:57:27.414Z,14.08
2018-04-24T19:59:55.192Z,13.91
2018-04-24T20:02:22.962Z,14.01
2018-04-24T20:04:50.709Z,14.04
2018-04-24T20:07:18.960Z,13.90
2018-04-24T20:09:47.466Z,14.10
2018-04-24T20:12:15.178Z,13.91
2018-04-24T20:14:43.094Z,14.00
2018-04-24T20:17:10.866Z,13.92
2018-04-24T20:19:38.491Z,13.93
2018-04-24T20:22:06.217Z,14.02
2018-04-24T20:24:33.899Z,13.81
2018-04-24T20:27:01.596Z,13.81
2018-04-24T20:29:29.317Z,13.57
2018-04-24T20:31:58.158Z,13.57
2018-04-24T20:34:25.977Z,13.44
2018-04-24T20:36:53.803Z,13.54
2018-04-24T20:39:21.587Z,13.46
2018-04-24T20:41:49.333Z,13.32
2018-04-24T20:44:17.094Z,13.23
2018-04-24T20:46:44.809Z,13.19
2018-04-24T20:49:12.442Z,13.27
2018-04-24T20:51:40.085Z,13.20
2018-04-24T20:54:08.049Z,13.22
2018-04-24T20:56:35.747Z,13.24
2018-04-24T20:59:03.488Z,13.11
2018-04-24T21:01:31.124Z,13.23
2018-04-24T21:03:58.847Z,13.30
2018-04-24T21:06:27.739Z,12.98
2018-04-24T21:08:55.435Z,12.96
2018-04-24T21:11:23.148Z,13.22
2018-04-24T21:13:50.784Z,13.31
2018-04-24T21:16:18.378Z,13.10
2018-04-24T21:18:46.048Z,12.91
2018-04-24T21:21:13.689Z,12.71
2018-04-24T21:23:41.351Z,12.69
2018-04-24T21:26:09.038Z,12.76
2018-04-24T21:28:36.675Z,12.60
2018-04-24T21:31:04.322Z,12.64
2018-04-24T21:33:32.436Z,12.72
2018-04-24T21:36:00.091Z,12.73
2018-04-24T21:38:27.726Z,12.67
2018-04-24T21:40:55.336Z,12.60
2018-04-24T21:43:22.985Z,12.58
2018-04-24T21:45:50.612Z,12.41
2018-04-24T21:48:18.207Z,12.34
2018-04-24T21:50:45.876Z,12.23
2018-04-24T21:53:13.535Z,12.21
2018-04-24T21:55:41.146Z,12.35
2018-04-24T21:58:08.817Z,12.30
2018-04-24T22:00:36.472Z,12.28
2018-04-24T22:03:04.073Z,12.22
2018-04-24T22:05:31.666Z,12.23
2018-04-24T22:07:59.317Z,12.29
2018-04-24T22:10:26.917Z,12.26
2018-04-24T22:12:54.576Z,12.24
2018-04-24T22:15:22.218Z,12.03
2018-04-24T22:17:49.894Z,11.99
2018-04-24T22:20:17.518Z,12.09
2018-04-24T22:22:45.146Z,11.99
2018-04-24T22:25:12.752Z,12.02
2018-04-24T22:27:41.326Z,11.96
2018-04-24T22:30:09.004Z,11.87
2018-04-24T22:32:36.625Z,11.82
2018-04-24T22:35:04.280Z,11.70
2018-04-24T22:37:31.897Z,11.74
2018-04-24T22:39:59.533Z,11.64
2018-04-24T22:42:27.161Z,11.68
2018-04-24T22:44:54.820Z,11.73
2018-04-24T22:47:22.482Z,11.70
2018-04-24T22:49:50.121Z,11.67
2018-04-24T22:52:17.735Z,11.71
2018-04-24T22:54:45.412Z,11.68
2018-04-24T22:57:12.996Z,11.62
2018-04-24T22:59:40.654Z,11.53
2018-04-24T23:02:09.157Z,11.66
2018-04-24T23:04:36.864Z,11.54
2018-04-24T23:07:04.483Z,11.55
2018-04-24T23:09:32.167Z,11.53
2018-04-24T23:12:11.574Z,11.44
2018-04-24T23:14:50.842Z,11.42
2018-04-24T23:17:30.044Z,11.44
2018-04-24T23:20:09.338Z,11.25
2018-04-24T23:22:37.049Z,11.30
2018-04-24T23:25:04.648Z,11.47
2018-04-24T23:27:32.382Z,11.29
2018-04-24T23:30:00.000Z,11.17
2018-04-24T23:32:27.649Z,11.23
2018-04-24T23:34:55.319Z,11.10
2018-04-24T23:37:22.946Z,11.10
2018-04-24T23:39:50.676Z,10.98
2018-04-24T23:42:18.398Z,11.00
2018-04-24T23:44:46.024Z,11.07
2018-04-24T23:47:13.693Z,11.10
2018-04-24T23:49:41.322Z,11.06
2018-04-24T23:52:08.976Z,10.95
2018-04-24T23:54:36.547Z,10.93
2018-04-24T23:57:04.206Z,10.89
2018-04-24T23:59:31.868Z,10.87
